SWA728 KMEM-KORD
Flight info
| Callsign | SWA728 |
|---|---|
| Flight time | 1h 18m |
| Altitude | 34000 |
| Route | JTEEE5 ODATE FTZ TRTLL6 |
| Aircraft | B738/M-SDE2E3FGHIRWXY/LB1 |
Departure
| Time | 2026-05-06 15:08 |
|---|---|
| Airport | Memphis International Airport (KMEM) |
Arrival
| Time | 2026-05-06 16:27 |
|---|---|
| Airport | Chicago O'Hare International Airport (KORD) |
| Time | Latitude | Longitude | Altitude | Speed | Heading |
|---|---|---|---|---|---|
| 2026-05-06 14:40 | 35.04435 | -89.97916 | 313 ft | 0 kts | 226° |
| 2026-05-06 14:51 | 35.04435 | -89.97915 | 313 ft | 2 kts | 226° |
| 2026-05-06 14:51 | 35.04447 | -89.97901 | 311 ft | 2 kts | 226° |
| 2026-05-06 14:51 | 35.04458 | -89.97886 | 312 ft | 2 kts | 230° |
| 2026-05-06 14:51 | 35.04467 | -89.97869 | 313 ft | 2 kts | 264° |
| 2026-05-06 14:52 | 35.04467 | -89.97849 | 311 ft | 2 kts | 255° |
| 2026-05-06 14:52 | 35.04479 | -89.97839 | 312 ft | 2 kts | 179° |
| 2026-05-06 14:52 | 35.04494 | -89.97840 | 312 ft | 1 kts | 178° |
| 2026-05-06 14:52 | 35.04495 | -89.97840 | 312 ft | 0 kts | 178° |
| 2026-05-06 14:55 | 35.04494 | -89.97840 | 313 ft | 1 kts | 178° |
| 2026-05-06 14:55 | 35.04454 | -89.97838 | 314 ft | 11 kts | 179° |
| 2026-05-06 14:55 | 35.04340 | -89.97837 | 316 ft | 19 kts | 179° |
| 2026-05-06 14:56 | 35.04251 | -89.97835 | 315 ft | 9 kts | 180° |
| 2026-05-06 14:56 | 35.04190 | -89.97836 | 314 ft | 9 kts | 181° |
| 2026-05-06 14:56 | 35.04130 | -89.97837 | 313 ft | 8 kts | 181° |
| 2026-05-06 14:56 | 35.04075 | -89.97837 | 312 ft | 7 kts | 180° |
| 2026-05-06 14:57 | 35.04027 | -89.97837 | 312 ft | 7 kts | 180° |
| 2026-05-06 14:57 | 35.03979 | -89.97837 | 312 ft | 7 kts | 179° |
| 2026-05-06 14:57 | 35.03920 | -89.97836 | 310 ft | 9 kts | 179° |
| 2026-05-06 14:57 | 35.03857 | -89.97834 | 310 ft | 10 kts | 179° |
| 2026-05-06 14:58 | 35.03800 | -89.97873 | 307 ft | 11 kts | 256° |
| 2026-05-06 14:58 | 35.03796 | -89.97961 | 309 ft | 10 kts | 269° |
| 2026-05-06 14:58 | 35.03794 | -89.98047 | 307 ft | 10 kts | 269° |
| 2026-05-06 14:58 | 35.03793 | -89.98108 | 310 ft | 6 kts | 269° |
| 2026-05-06 14:59 | 35.03793 | -89.98160 | 307 ft | 6 kts | 269° |
| 2026-05-06 14:59 | 35.03792 | -89.98212 | 310 ft | 6 kts | 269° |
| 2026-05-06 14:59 | 35.03791 | -89.98266 | 310 ft | 9 kts | 269° |
| 2026-05-06 14:59 | 35.03790 | -89.98365 | 306 ft | 13 kts | 269° |
| 2026-05-06 15:00 | 35.03788 | -89.98460 | 308 ft | 9 kts | 269° |
| 2026-05-06 15:00 | 35.03787 | -89.98538 | 307 ft | 9 kts | 262° |
| 2026-05-06 15:00 | 35.03741 | -89.98584 | 309 ft | 10 kts | 182° |
| 2026-05-06 15:00 | 35.03675 | -89.98584 | 311 ft | 9 kts | 179° |
| 2026-05-06 15:01 | 35.03611 | -89.98582 | 312 ft | 9 kts | 179° |
| 2026-05-06 15:01 | 35.03549 | -89.98581 | 312 ft | 9 kts | 179° |
| 2026-05-06 15:01 | 35.03467 | -89.98579 | 314 ft | 15 kts | 179° |
| 2026-05-06 15:01 | 35.03344 | -89.98577 | 316 ft | 19 kts | 179° |
| 2026-05-06 15:02 | 35.03216 | -89.98574 | 316 ft | 18 kts | 179° |
| 2026-05-06 15:02 | 35.03092 | -89.98571 | 314 ft | 17 kts | 179° |
| 2026-05-06 15:02 | 35.02972 | -89.98569 | 314 ft | 17 kts | 179° |
| 2026-05-06 15:02 | 35.02864 | -89.98567 | 314 ft | 10 kts | 179° |
| 2026-05-06 15:03 | 35.02805 | -89.98565 | 314 ft | 8 kts | 179° |
| 2026-05-06 15:03 | 35.02747 | -89.98564 | 314 ft | 8 kts | 179° |
| 2026-05-06 15:03 | 35.02691 | -89.98563 | 315 ft | 8 kts | 179° |
| 2026-05-06 15:03 | 35.02637 | -89.98561 | 316 ft | 8 kts | 179° |
| 2026-05-06 15:04 | 35.02585 | -89.98560 | 317 ft | 7 kts | 179° |
| 2026-05-06 15:04 | 35.02534 | -89.98559 | 319 ft | 7 kts | 179° |
| 2026-05-06 15:04 | 35.02520 | -89.98573 | 319 ft | 0 kts | 258° |
| 2026-05-06 15:05 | 35.02520 | -89.98576 | 319 ft | 2 kts | 258° |
| 2026-05-06 15:06 | 35.02516 | -89.98622 | 320 ft | 9 kts | 269° |
| 2026-05-06 15:06 | 35.02522 | -89.98688 | 320 ft | 7 kts | 314° |
| 2026-05-06 15:06 | 35.02550 | -89.98693 | 319 ft | 0 kts | 358° |
| 2026-05-06 15:06 | 35.02551 | -89.98693 | 319 ft | 0 kts | 358° |
| 2026-05-06 15:07 | 35.02559 | -89.98693 | 318 ft | 2 kts | 358° |
| 2026-05-06 15:07 | 35.02560 | -89.98693 | 318 ft | 1 kts | 358° |
| 2026-05-06 15:07 | 35.02568 | -89.98693 | 318 ft | 2 kts | 358° |
| 2026-05-06 15:07 | 35.02597 | -89.98694 | 316 ft | 10 kts | 358° |
| 2026-05-06 15:08 | 35.02861 | -89.98700 | 315 ft | 71 kts | 359° |
| 2026-05-06 15:08 | 35.03561 | -89.98715 | 312 ft | 129 kts | 359° |
| 2026-05-06 15:08 | 35.04598 | -89.98746 | 550 ft | 158 kts | 0° |
| 2026-05-06 15:08 | 35.05729 | -89.98792 | 1195 ft | 165 kts | 357° |
| 2026-05-06 15:09 | 35.06839 | -89.98983 | 1980 ft | 162 kts | 349° |
| 2026-05-06 15:09 | 35.08017 | -89.99081 | 2385 ft | 183 kts | 359° |
| 2026-05-06 15:09 | 35.09389 | -89.99126 | 2600 ft | 210 kts | 355° |
| 2026-05-06 15:09 | 35.10931 | -89.99262 | 2795 ft | 234 kts | 353° |
| 2026-05-06 15:10 | 35.12647 | -89.99423 | 2988 ft | 259 kts | 353° |
| 2026-05-06 15:10 | 35.14491 | -89.99630 | 3523 ft | 271 kts | 352° |
| 2026-05-06 15:10 | 35.16359 | -89.99864 | 4378 ft | 269 kts | 346° |
| 2026-05-06 15:10 | 35.18211 | -90.00254 | 5121 ft | 271 kts | 343° |
| 2026-05-06 15:11 | 35.20068 | -90.00645 | 5896 ft | 274 kts | 343° |
| 2026-05-06 15:11 | 35.21955 | -90.01050 | 6651 ft | 274 kts | 343° |
| 2026-05-06 15:11 | 35.23869 | -90.01335 | 7380 ft | 281 kts | 348° |
| 2026-05-06 15:11 | 35.25839 | -90.01462 | 8105 ft | 286 kts | 351° |
| 2026-05-06 15:12 | 35.27839 | -90.01555 | 8850 ft | 288 kts | 351° |
| 2026-05-06 15:12 | 35.29847 | -90.01647 | 9597 ft | 290 kts | 350° |
| 2026-05-06 15:12 | 35.31873 | -90.01748 | 10243 ft | 294 kts | 349° |
| 2026-05-06 15:12 | 35.33986 | -90.01869 | 10442 ft | 315 kts | 349° |
| 2026-05-06 15:13 | 35.36251 | -90.02006 | 10607 ft | 336 kts | 349° |
| 2026-05-06 15:13 | 35.38659 | -90.02152 | 10765 ft | 356 kts | 350° |
| 2026-05-06 15:13 | 35.41179 | -90.02300 | 11099 ft | 368 kts | 350° |
| 2026-05-06 15:13 | 35.43755 | -90.02447 | 11645 ft | 372 kts | 349° |
| 2026-05-06 15:14 | 35.46352 | -90.02595 | 12253 ft | 376 kts | 349° |
| 2026-05-06 15:14 | 35.48980 | -90.02748 | 12828 ft | 380 kts | 348° |
| 2026-05-06 15:14 | 35.51633 | -90.02906 | 13436 ft | 384 kts | 347° |
| 2026-05-06 15:14 | 35.54315 | -90.03067 | 14009 ft | 388 kts | 347° |
| 2026-05-06 15:15 | 35.57029 | -90.03230 | 14551 ft | 392 kts | 347° |
| 2026-05-06 15:15 | 35.59766 | -90.03396 | 15125 ft | 396 kts | 347° |
| 2026-05-06 15:15 | 35.62523 | -90.03563 | 15693 ft | 399 kts | 347° |
| 2026-05-06 15:15 | 35.65305 | -90.03761 | 16256 ft | 401 kts | 346° |
| 2026-05-06 15:16 | 35.68102 | -90.04011 | 16809 ft | 405 kts | 345° |
| 2026-05-06 15:16 | 35.70926 | -90.04269 | 17351 ft | 409 kts | 345° |
| 2026-05-06 15:16 | 35.73777 | -90.04524 | 17894 ft | 413 kts | 345° |
| 2026-05-06 15:16 | 35.76660 | -90.04774 | 18427 ft | 418 kts | 345° |
| 2026-05-06 15:17 | 35.79554 | -90.05138 | 18827 ft | 416 kts | 339° |
| 2026-05-06 15:17 | 35.82362 | -90.05857 | 19354 ft | 411 kts | 335° |
| 2026-05-06 15:17 | 35.85128 | -90.06731 | 19884 ft | 410 kts | 333° |
| 2026-05-06 15:17 | 35.87889 | -90.07658 | 20376 ft | 413 kts | 333° |
| 2026-05-06 15:18 | 35.90635 | -90.08579 | 20845 ft | 416 kts | 333° |
| 2026-05-06 15:18 | 35.92529 | -90.09204 | 21171 ft | 418 kts | 334° |
| 2026-05-06 15:18 | 35.96276 | -90.10410 | 21798 ft | 422 kts | 334° |
| 2026-05-06 15:18 | 35.99134 | -90.11308 | 22257 ft | 425 kts | 334° |
| 2026-05-06 15:19 | 36.02012 | -90.12200 | 22711 ft | 428 kts | 334° |
| 2026-05-06 15:19 | 36.04915 | -90.13094 | 23150 ft | 431 kts | 334° |
| 2026-05-06 15:19 | 36.07832 | -90.13989 | 23572 ft | 433 kts | 334° |
| 2026-05-06 15:19 | 36.09815 | -90.14597 | 23817 ft | 435 kts | 334° |
| 2026-05-06 15:20 | 36.12759 | -90.15499 | 24184 ft | 437 kts | 334° |
| 2026-05-06 15:20 | 36.15675 | -90.16392 | 24554 ft | 438 kts | 334° |
| 2026-05-06 15:20 | 36.18640 | -90.17302 | 24918 ft | 440 kts | 334° |
| 2026-05-06 15:20 | 36.21615 | -90.18216 | 25275 ft | 441 kts | 334° |
| 2026-05-06 15:21 | 36.24604 | -90.19136 | 25627 ft | 443 kts | 334° |
| 2026-05-06 15:21 | 36.27605 | -90.20061 | 25963 ft | 446 kts | 334° |
| 2026-05-06 15:21 | 36.30623 | -90.20994 | 26266 ft | 448 kts | 334° |
| 2026-05-06 15:21 | 36.33657 | -90.21930 | 26602 ft | 450 kts | 334° |
| 2026-05-06 15:22 | 36.36699 | -90.22869 | 26932 ft | 451 kts | 334° |
| 2026-05-06 15:22 | 36.36959 | -90.22949 | 26957 ft | 451 kts | 334° |
| 2026-05-06 15:22 | 36.37574 | -90.23139 | 27027 ft | 451 kts | 334° |
| 2026-05-06 15:23 | 36.40616 | -90.24079 | 27352 ft | 453 kts | 333° |
| 2026-05-06 15:23 | 36.43678 | -90.25027 | 27654 ft | 455 kts | 333° |
| 2026-05-06 15:23 | 36.46754 | -90.25980 | 27956 ft | 457 kts | 333° |
| 2026-05-06 15:23 | 36.49805 | -90.26926 | 28246 ft | 458 kts | 333° |
| 2026-05-06 15:24 | 36.52907 | -90.27889 | 28564 ft | 460 kts | 333° |
| 2026-05-06 15:24 | 36.56019 | -90.28856 | 28861 ft | 462 kts | 333° |
| 2026-05-06 15:24 | 36.59132 | -90.29820 | 29312 ft | 460 kts | 333° |
| 2026-05-06 15:24 | 36.62224 | -90.30776 | 29823 ft | 457 kts | 333° |
| 2026-05-06 15:25 | 36.65304 | -90.31730 | 30255 ft | 455 kts | 332° |
| 2026-05-06 15:25 | 36.68373 | -90.32683 | 30616 ft | 453 kts | 332° |
| 2026-05-06 15:25 | 36.71424 | -90.33633 | 30991 ft | 451 kts | 332° |
| 2026-05-06 15:25 | 36.74460 | -90.34579 | 31404 ft | 448 kts | 331° |
| 2026-05-06 15:26 | 36.77470 | -90.35516 | 31901 ft | 444 kts | 331° |
| 2026-05-06 15:26 | 36.80456 | -90.36446 | 32347 ft | 440 kts | 330° |
| 2026-05-06 15:26 | 36.83417 | -90.37372 | 32716 ft | 438 kts | 330° |
| 2026-05-06 15:26 | 36.86373 | -90.38299 | 33077 ft | 437 kts | 329° |
| 2026-05-06 15:27 | 36.89324 | -90.39228 | 33323 ft | 438 kts | 329° |
| 2026-05-06 15:27 | 36.92277 | -90.40158 | 33647 ft | 437 kts | 329° |
| 2026-05-06 15:27 | 36.95216 | -90.41081 | 34034 ft | 434 kts | 329° |
| 2026-05-06 15:28 | 37.01119 | -90.42946 | 34087 ft | 439 kts | 329° |
| 2026-05-06 15:28 | 37.07038 | -90.44806 | 34074 ft | 437 kts | 329° |
| 2026-05-06 15:29 | 37.12915 | -90.46652 | 34076 ft | 434 kts | 329° |
| 2026-05-06 15:29 | 37.18760 | -90.48497 | 34078 ft | 433 kts | 329° |
| 2026-05-06 15:30 | 37.24587 | -90.50347 | 34158 ft | 431 kts | 328° |
| 2026-05-06 15:30 | 37.30462 | -90.52223 | 34101 ft | 440 kts | 328° |
| 2026-05-06 15:31 | 37.36437 | -90.54120 | 34085 ft | 443 kts | 328° |
| 2026-05-06 15:31 | 37.42421 | -90.56009 | 34082 ft | 443 kts | 328° |
| 2026-05-06 15:32 | 37.51390 | -90.58861 | 34072 ft | 444 kts | 328° |
| 2026-05-06 15:32 | 37.57373 | -90.60770 | 34069 ft | 443 kts | 328° |
| 2026-05-06 15:33 | 37.63313 | -90.62662 | 34075 ft | 442 kts | 328° |
| 2026-05-06 15:33 | 37.69265 | -90.64571 | 34069 ft | 440 kts | 328° |
| 2026-05-06 15:34 | 37.75209 | -90.66478 | 34083 ft | 441 kts | 328° |
| 2026-05-06 15:34 | 37.81162 | -90.68391 | 34078 ft | 441 kts | 328° |
| 2026-05-06 15:35 | 37.87102 | -90.70301 | 34083 ft | 440 kts | 328° |
| 2026-05-06 15:35 | 37.93026 | -90.72209 | 34083 ft | 439 kts | 328° |
| 2026-05-06 15:36 | 37.98949 | -90.74122 | 34100 ft | 439 kts | 328° |
| 2026-05-06 15:36 | 38.04866 | -90.76037 | 34094 ft | 439 kts | 328° |
| 2026-05-06 15:37 | 38.10752 | -90.77941 | 34086 ft | 439 kts | 328° |
| 2026-05-06 15:37 | 38.16672 | -90.79862 | 34087 ft | 439 kts | 328° |
| 2026-05-06 15:38 | 38.22586 | -90.81785 | 34093 ft | 439 kts | 328° |
| 2026-05-06 15:38 | 38.28501 | -90.83711 | 34083 ft | 439 kts | 328° |
| 2026-05-06 15:39 | 38.34418 | -90.85640 | 34087 ft | 438 kts | 327° |
| 2026-05-06 15:39 | 38.40316 | -90.87566 | 34072 ft | 438 kts | 327° |
| 2026-05-06 15:40 | 38.46218 | -90.89497 | 34076 ft | 438 kts | 327° |
| 2026-05-06 15:40 | 38.52113 | -90.91430 | 34067 ft | 437 kts | 327° |
| 2026-05-06 15:41 | 38.58002 | -90.93363 | 34074 ft | 437 kts | 327° |
| 2026-05-06 15:41 | 38.63886 | -90.95298 | 34095 ft | 437 kts | 327° |
| 2026-05-06 15:42 | 38.70092 | -90.96389 | 34092 ft | 489 kts | 350° |
| 2026-05-06 15:42 | 38.73503 | -90.95245 | 34067 ft | 523 kts | 7° |
| 2026-05-06 15:42 | 38.76865 | -90.93424 | 34102 ft | 525 kts | 9° |
| 2026-05-06 15:43 | 38.83541 | -90.89619 | 34072 ft | 524 kts | 9° |
| 2026-05-06 15:43 | 38.90210 | -90.85879 | 34110 ft | 522 kts | 8° |
| 2026-05-06 15:44 | 38.96886 | -90.82235 | 34069 ft | 521 kts | 8° |
| 2026-05-06 15:44 | 39.03562 | -90.78613 | 34071 ft | 521 kts | 8° |
| 2026-05-06 15:45 | 39.10190 | -90.75004 | 34052 ft | 521 kts | 8° |
| 2026-05-06 15:45 | 39.16865 | -90.71354 | 34075 ft | 522 kts | 8° |
| 2026-05-06 15:46 | 39.23541 | -90.67694 | 34068 ft | 522 kts | 8° |
| 2026-05-06 15:46 | 39.30233 | -90.64017 | 34062 ft | 522 kts | 8° |
| 2026-05-06 15:47 | 39.36914 | -90.60339 | 34127 ft | 522 kts | 8° |
| 2026-05-06 15:47 | 39.43604 | -90.56649 | 34075 ft | 523 kts | 8° |
| 2026-05-06 15:48 | 39.50269 | -90.52816 | 34078 ft | 525 kts | 9° |
| 2026-05-06 15:48 | 39.56917 | -90.48891 | 34079 ft | 524 kts | 9° |
| 2026-05-06 15:49 | 39.63553 | -90.44986 | 34071 ft | 524 kts | 9° |
| 2026-05-06 15:49 | 39.70193 | -90.41089 | 34080 ft | 523 kts | 9° |
| 2026-05-06 15:50 | 39.76816 | -90.37199 | 34068 ft | 522 kts | 9° |
| 2026-05-06 15:50 | 39.83424 | -90.33309 | 34103 ft | 521 kts | 9° |
| 2026-05-06 15:51 | 39.89983 | -90.29438 | 34087 ft | 521 kts | 9° |
| 2026-05-06 15:51 | 39.96552 | -90.25359 | 34051 ft | 537 kts | 20° |
| 2026-05-06 15:52 | 39.99561 | -90.22307 | 34103 ft | 552 kts | 29° |
| 2026-05-06 15:52 | 40.02444 | -90.18992 | 34066 ft | 554 kts | 31° |
| 2026-05-06 15:52 | 40.08160 | -90.12264 | 34060 ft | 552 kts | 30° |
| 2026-05-06 15:53 | 40.13907 | -90.05671 | 34055 ft | 548 kts | 29° |
| 2026-05-06 15:53 | 40.19676 | -89.99174 | 33882 ft | 548 kts | 29° |
| 2026-05-06 15:54 | 40.22571 | -89.95919 | 33315 ft | 548 kts | 29° |
| 2026-05-06 15:54 | 40.25452 | -89.92665 | 32835 ft | 547 kts | 30° |
| 2026-05-06 15:54 | 40.28331 | -89.89403 | 32220 ft | 547 kts | 30° |
| 2026-05-06 15:54 | 40.31209 | -89.86136 | 31602 ft | 548 kts | 30° |
| 2026-05-06 15:55 | 40.34093 | -89.82860 | 30974 ft | 549 kts | 30° |
| 2026-05-06 15:55 | 40.36978 | -89.79579 | 30378 ft | 549 kts | 31° |
| 2026-05-06 15:55 | 40.39851 | -89.76305 | 29931 ft | 544 kts | 31° |
| 2026-05-06 15:55 | 40.42694 | -89.73058 | 29407 ft | 540 kts | 31° |
| 2026-05-06 15:56 | 40.45513 | -89.69835 | 28935 ft | 534 kts | 31° |
| 2026-05-06 15:56 | 40.48300 | -89.66648 | 28490 ft | 529 kts | 32° |
| 2026-05-06 15:56 | 40.51064 | -89.63486 | 27993 ft | 524 kts | 32° |
| 2026-05-06 15:56 | 40.53801 | -89.60352 | 27503 ft | 520 kts | 33° |
| 2026-05-06 15:57 | 40.56514 | -89.57244 | 27039 ft | 515 kts | 33° |
| 2026-05-06 15:57 | 40.59199 | -89.54163 | 26585 ft | 510 kts | 33° |
| 2026-05-06 15:57 | 40.61866 | -89.51101 | 26118 ft | 506 kts | 34° |
| 2026-05-06 15:57 | 40.64500 | -89.48071 | 25665 ft | 501 kts | 34° |
| 2026-05-06 15:58 | 40.67114 | -89.45062 | 25223 ft | 496 kts | 35° |
| 2026-05-06 15:58 | 40.69699 | -89.42084 | 24774 ft | 492 kts | 35° |
| 2026-05-06 15:58 | 40.72264 | -89.39124 | 24328 ft | 488 kts | 36° |
| 2026-05-06 15:58 | 40.74806 | -89.36181 | 23861 ft | 485 kts | 36° |
| 2026-05-06 15:59 | 40.77279 | -89.33265 | 23292 ft | 483 kts | 37° |
| 2026-05-06 15:59 | 40.79762 | -89.30302 | 22746 ft | 479 kts | 37° |
| 2026-05-06 15:59 | 40.82221 | -89.27352 | 22228 ft | 475 kts | 38° |
| 2026-05-06 15:59 | 40.84654 | -89.24433 | 21749 ft | 470 kts | 38° |
| 2026-05-06 16:00 | 40.87059 | -89.21548 | 21245 ft | 466 kts | 38° |
| 2026-05-06 16:00 | 40.89449 | -89.18686 | 20771 ft | 461 kts | 38° |
| 2026-05-06 16:00 | 40.91815 | -89.15852 | 20345 ft | 457 kts | 38° |
| 2026-05-06 16:00 | 40.94158 | -89.13046 | 19864 ft | 453 kts | 38° |
| 2026-05-06 16:01 | 40.96483 | -89.10258 | 19389 ft | 449 kts | 38° |
| 2026-05-06 16:01 | 40.98788 | -89.07492 | 18929 ft | 445 kts | 38° |
| 2026-05-06 16:01 | 41.01069 | -89.04752 | 18465 ft | 441 kts | 38° |
| 2026-05-06 16:01 | 41.03331 | -89.02031 | 17951 ft | 437 kts | 38° |
| 2026-05-06 16:02 | 41.05568 | -88.99337 | 17466 ft | 433 kts | 38° |
| 2026-05-06 16:02 | 41.07780 | -88.96671 | 16997 ft | 428 kts | 38° |
| 2026-05-06 16:02 | 41.09968 | -88.94031 | 16544 ft | 422 kts | 38° |
| 2026-05-06 16:02 | 41.12128 | -88.91423 | 16103 ft | 417 kts | 38° |
| 2026-05-06 16:03 | 41.14260 | -88.88846 | 15690 ft | 412 kts | 38° |
| 2026-05-06 16:03 | 41.16368 | -88.86297 | 15258 ft | 408 kts | 38° |
| 2026-05-06 16:03 | 41.18455 | -88.83771 | 14833 ft | 404 kts | 38° |
| 2026-05-06 16:03 | 41.20490 | -88.81306 | 14429 ft | 400 kts | 38° |
| 2026-05-06 16:04 | 41.22532 | -88.78829 | 14015 ft | 395 kts | 38° |
| 2026-05-06 16:04 | 41.24553 | -88.76378 | 13574 ft | 391 kts | 39° |
| 2026-05-06 16:04 | 41.26549 | -88.73954 | 13132 ft | 387 kts | 39° |
| 2026-05-06 16:04 | 41.28523 | -88.71554 | 12717 ft | 382 kts | 39° |
| 2026-05-06 16:05 | 41.30474 | -88.69182 | 12315 ft | 377 kts | 39° |
| 2026-05-06 16:05 | 41.32398 | -88.66841 | 11927 ft | 373 kts | 39° |
| 2026-05-06 16:05 | 41.34295 | -88.64529 | 11551 ft | 368 kts | 39° |
| 2026-05-06 16:05 | 41.36174 | -88.62239 | 11167 ft | 364 kts | 39° |
| 2026-05-06 16:06 | 41.38032 | -88.59992 | 10938 ft | 355 kts | 38° |
| 2026-05-06 16:06 | 41.39844 | -88.57833 | 10784 ft | 345 kts | 38° |
| 2026-05-06 16:06 | 41.41621 | -88.55726 | 10645 ft | 339 kts | 38° |
| 2026-05-06 16:06 | 41.43378 | -88.53647 | 10530 ft | 337 kts | 38° |
| 2026-05-06 16:07 | 41.45124 | -88.51579 | 10383 ft | 332 kts | 38° |
| 2026-05-06 16:07 | 41.46823 | -88.49558 | 10241 ft | 323 kts | 38° |
| 2026-05-06 16:07 | 41.48479 | -88.47587 | 10112 ft | 314 kts | 38° |
| 2026-05-06 16:07 | 41.50088 | -88.45672 | 9984 ft | 306 kts | 38° |
| 2026-05-06 16:08 | 41.51658 | -88.43803 | 9852 ft | 299 kts | 38° |
| 2026-05-06 16:08 | 41.52677 | -88.42587 | 9787 ft | 295 kts | 38° |
| 2026-05-06 16:08 | 41.54714 | -88.40160 | 9619 ft | 292 kts | 38° |
| 2026-05-06 16:08 | 41.56230 | -88.38352 | 9514 ft | 293 kts | 38° |
| 2026-05-06 16:09 | 41.57752 | -88.36534 | 9391 ft | 295 kts | 38° |
| 2026-05-06 16:09 | 41.58768 | -88.35321 | 9317 ft | 297 kts | 38° |
| 2026-05-06 16:09 | 41.60825 | -88.32861 | 9139 ft | 296 kts | 38° |
| 2026-05-06 16:09 | 41.61839 | -88.31646 | 9074 ft | 295 kts | 38° |
| 2026-05-06 16:10 | 41.63367 | -88.29827 | 8945 ft | 294 kts | 38° |
| 2026-05-06 16:10 | 41.64891 | -88.28016 | 8828 ft | 293 kts | 38° |
| 2026-05-06 16:10 | 41.66409 | -88.26211 | 8711 ft | 292 kts | 38° |
| 2026-05-06 16:10 | 41.67924 | -88.24409 | 8598 ft | 291 kts | 38° |
| 2026-05-06 16:11 | 41.69438 | -88.22607 | 8477 ft | 291 kts | 38° |
| 2026-05-06 16:11 | 41.70949 | -88.20806 | 8361 ft | 290 kts | 38° |
| 2026-05-06 16:11 | 41.72454 | -88.19010 | 8243 ft | 290 kts | 38° |
| 2026-05-06 16:11 | 41.73960 | -88.17213 | 8114 ft | 289 kts | 38° |
| 2026-05-06 16:12 | 41.75460 | -88.15421 | 7999 ft | 289 kts | 38° |
| 2026-05-06 16:12 | 41.76957 | -88.13633 | 7896 ft | 288 kts | 38° |
| 2026-05-06 16:12 | 41.78447 | -88.11850 | 7776 ft | 287 kts | 38° |
| 2026-05-06 16:12 | 41.79939 | -88.10066 | 7666 ft | 287 kts | 38° |
| 2026-05-06 16:13 | 41.81404 | -88.08260 | 7556 ft | 287 kts | 41° |
| 2026-05-06 16:13 | 41.82799 | -88.06403 | 7424 ft | 286 kts | 41° |
| 2026-05-06 16:13 | 41.84223 | -88.04491 | 7308 ft | 286 kts | 41° |
| 2026-05-06 16:13 | 41.85609 | -88.02638 | 7196 ft | 285 kts | 41° |
| 2026-05-06 16:14 | 41.87017 | -88.00765 | 7088 ft | 285 kts | 41° |
| 2026-05-06 16:14 | 41.88183 | -87.98610 | 6927 ft | 290 kts | 68° |
| 2026-05-06 16:14 | 41.88523 | -87.95955 | 6860 ft | 290 kts | 88° |
| 2026-05-06 16:14 | 41.88516 | -87.93245 | 6743 ft | 290 kts | 90° |
| 2026-05-06 16:15 | 41.88480 | -87.90532 | 6615 ft | 291 kts | 90° |
| 2026-05-06 16:15 | 41.88458 | -87.88027 | 6506 ft | 290 kts | 90° |
| 2026-05-06 16:15 | 41.88445 | -87.85318 | 6394 ft | 290 kts | 89° |
| 2026-05-06 16:15 | 41.88438 | -87.82624 | 6267 ft | 290 kts | 89° |
| 2026-05-06 16:16 | 41.88433 | -87.79917 | 6158 ft | 289 kts | 89° |
| 2026-05-06 16:16 | 41.88429 | -87.77222 | 6037 ft | 289 kts | 89° |
| 2026-05-06 16:16 | 41.88427 | -87.74539 | 5940 ft | 286 kts | 89° |
| 2026-05-06 16:16 | 41.88424 | -87.71880 | 5819 ft | 284 kts | 89° |
| 2026-05-06 16:17 | 41.88420 | -87.69239 | 5700 ft | 282 kts | 89° |
| 2026-05-06 16:17 | 41.88416 | -87.66617 | 5569 ft | 280 kts | 89° |
| 2026-05-06 16:17 | 41.88411 | -87.64002 | 5468 ft | 280 kts | 89° |
| 2026-05-06 16:17 | 41.88405 | -87.61430 | 5364 ft | 279 kts | 89° |
| 2026-05-06 16:18 | 41.88398 | -87.58848 | 5275 ft | 273 kts | 89° |
| 2026-05-06 16:18 | 41.88392 | -87.56336 | 5128 ft | 266 kts | 89° |
| 2026-05-06 16:18 | 41.88386 | -87.53886 | 4845 ft | 259 kts | 89° |
| 2026-05-06 16:18 | 41.88382 | -87.51491 | 4603 ft | 254 kts | 87° |
| 2026-05-06 16:19 | 41.88770 | -87.49253 | 4341 ft | 243 kts | 58° |
| 2026-05-06 16:19 | 41.89893 | -87.47680 | 4086 ft | 229 kts | 25° |
| 2026-05-06 16:19 | 41.91358 | -87.47238 | 4005 ft | 208 kts | 351° |
| 2026-05-06 16:19 | 41.92591 | -87.47968 | 3999 ft | 189 kts | 313° |
| 2026-05-06 16:20 | 41.93279 | -87.49390 | 4019 ft | 177 kts | 297° |
| 2026-05-06 16:20 | 41.93808 | -87.50829 | 4008 ft | 168 kts | 296° |
| 2026-05-06 16:20 | 41.94316 | -87.52237 | 4003 ft | 167 kts | 296° |
| 2026-05-06 16:20 | 41.94821 | -87.53647 | 4011 ft | 168 kts | 296° |
| 2026-05-06 16:21 | 41.95327 | -87.55063 | 4015 ft | 169 kts | 296° |
| 2026-05-06 16:21 | 41.95837 | -87.56488 | 4011 ft | 169 kts | 296° |
| 2026-05-06 16:21 | 41.96345 | -87.57922 | 4016 ft | 170 kts | 294° |
| 2026-05-06 16:21 | 41.96575 | -87.59472 | 4011 ft | 170 kts | 273° |
| 2026-05-06 16:22 | 41.96619 | -87.61040 | 4002 ft | 171 kts | 273° |
| 2026-05-06 16:22 | 41.96643 | -87.62630 | 4000 ft | 170 kts | 272° |
| 2026-05-06 16:22 | 41.96649 | -87.64221 | 4024 ft | 171 kts | 271° |
| 2026-05-06 16:22 | 41.96647 | -87.65825 | 4001 ft | 171 kts | 271° |
| 2026-05-06 16:23 | 41.96642 | -87.67433 | 3902 ft | 173 kts | 271° |
| 2026-05-06 16:23 | 41.96635 | -87.69058 | 3669 ft | 174 kts | 271° |
| 2026-05-06 16:23 | 41.96628 | -87.70673 | 3428 ft | 171 kts | 271° |
| 2026-05-06 16:23 | 41.96622 | -87.72264 | 3193 ft | 170 kts | 271° |
| 2026-05-06 16:24 | 41.96616 | -87.73821 | 2962 ft | 162 kts | 271° |
| 2026-05-06 16:24 | 41.96611 | -87.75281 | 2778 ft | 151 kts | 271° |
| 2026-05-06 16:24 | 41.96607 | -87.76713 | 2532 ft | 153 kts | 271° |
| 2026-05-06 16:24 | 41.96603 | -87.78100 | 2311 ft | 145 kts | 271° |
| 2026-05-06 16:25 | 41.96600 | -87.79438 | 2141 ft | 143 kts | 271° |
| 2026-05-06 16:25 | 41.96596 | -87.80809 | 1951 ft | 151 kts | 271° |
| 2026-05-06 16:25 | 41.96592 | -87.82221 | 1707 ft | 150 kts | 271° |
| 2026-05-06 16:25 | 41.96593 | -87.83602 | 1540 ft | 148 kts | 270° |
| 2026-05-06 16:26 | 41.96589 | -87.85006 | 1348 ft | 152 kts | 269° |
| 2026-05-06 16:26 | 41.96573 | -87.86412 | 1132 ft | 150 kts | 269° |
| 2026-05-06 16:26 | 41.96566 | -87.87816 | 948 ft | 150 kts | 269° |
| 2026-05-06 16:26 | 41.96572 | -87.89197 | 717 ft | 147 kts | 269° |
| 2026-05-06 16:27 | 41.96575 | -87.90500 | 668 ft | 124 kts | 270° |
| 2026-05-06 16:27 | 41.96574 | -87.91452 | 669 ft | 80 kts | 270° |
| 2026-05-06 16:27 | 41.96573 | -87.91948 | 673 ft | 23 kts | 270° |
| 2026-05-06 16:27 | 41.96613 | -87.92083 | 676 ft | 14 kts | 351° |
| 2026-05-06 16:28 | 41.96680 | -87.92085 | 674 ft | 7 kts | 0° |
| 2026-05-06 16:28 | 41.96727 | -87.92085 | 673 ft | 7 kts | 2° |
| 2026-05-06 16:28 | 41.96774 | -87.92085 | 672 ft | 6 kts | 2° |
| 2026-05-06 16:28 | 41.96820 | -87.92085 | 672 ft | 7 kts | 1° |
| 2026-05-06 16:29 | 41.96865 | -87.92085 | 672 ft | 6 kts | 359° |
| 2026-05-06 16:29 | 41.96909 | -87.92086 | 674 ft | 6 kts | 0° |
| 2026-05-06 16:29 | 41.96925 | -87.92086 | 674 ft | 1 kts | 3° |
| 2026-05-06 16:29 | 41.96931 | -87.92087 | 674 ft | 1 kts | 2° |
| 2026-05-06 16:30 | 41.96937 | -87.92087 | 674 ft | 1 kts | 4° |
| 2026-05-06 16:30 | 41.96941 | -87.92086 | 674 ft | 1 kts | 9° |
| 2026-05-06 16:30 | 41.96948 | -87.92085 | 674 ft | 1 kts | 14° |
| 2026-05-06 16:30 | 41.96952 | -87.92082 | 674 ft | 1 kts | 32° |
| 2026-05-06 16:31 | 41.96952 | -87.92075 | 674 ft | 1 kts | 92° |
| 2026-05-06 16:31 | 41.96946 | -87.92076 | 674 ft | 1 kts | 198° |
| 2026-05-06 16:31 | 41.96954 | -87.92080 | 674 ft | 1 kts | 17° |
| 2026-05-06 16:31 | 41.96960 | -87.92075 | 674 ft | 1 kts | 30° |
| 2026-05-06 16:32 | 41.96968 | -87.92072 | 673 ft | 1 kts | 19° |
| 2026-05-06 16:32 | 41.96975 | -87.92071 | 671 ft | 1 kts | 7° |
| 2026-05-06 16:32 | 41.96982 | -87.92071 | 674 ft | 1 kts | 6° |
| 2026-05-06 16:32 | 41.96991 | -87.92069 | 674 ft | 2 kts | 11° |
| 2026-05-06 16:33 | 41.97006 | -87.92065 | 674 ft | 2 kts | 13° |
| 2026-05-06 16:33 | 41.97023 | -87.92058 | 674 ft | 4 kts | 29° |
| 2026-05-06 16:33 | 41.97035 | -87.92029 | 672 ft | 4 kts | 82° |
| 2026-05-06 16:34 | 41.97039 | -87.91891 | 675 ft | 8 kts | 91° |
| 2026-05-06 16:34 | 41.97040 | -87.91822 | 675 ft | 8 kts | 89° |
| 2026-05-06 16:34 | 41.97039 | -87.91751 | 676 ft | 8 kts | 87° |
| 2026-05-06 16:34 | 41.97041 | -87.91679 | 677 ft | 8 kts | 91° |
| 2026-05-06 16:35 | 41.97039 | -87.91608 | 678 ft | 8 kts | 92° |
| 2026-05-06 16:35 | 41.97039 | -87.91537 | 677 ft | 6 kts | 90° |
| 2026-05-06 16:35 | 41.97039 | -87.91466 | 677 ft | 8 kts | 80° |
| 2026-05-06 16:35 | 41.97041 | -87.91394 | 675 ft | 8 kts | 88° |
| 2026-05-06 16:36 | 41.97042 | -87.91323 | 675 ft | 8 kts | 90° |
| 2026-05-06 16:36 | 41.97042 | -87.91251 | 674 ft | 8 kts | 90° |
| 2026-05-06 16:36 | 41.97042 | -87.91180 | 673 ft | 8 kts | 89° |
| 2026-05-06 16:36 | 41.97042 | -87.91108 | 672 ft | 8 kts | 90° |
| 2026-05-06 16:37 | 41.97042 | -87.91037 | 670 ft | 8 kts | 90° |
| 2026-05-06 16:37 | 41.97042 | -87.90965 | 668 ft | 8 kts | 91° |
| 2026-05-06 16:37 | 41.97043 | -87.90894 | 666 ft | 8 kts | 90° |
| 2026-05-06 16:37 | 41.97043 | -87.90822 | 665 ft | 8 kts | 90° |
| 2026-05-06 16:38 | 41.97042 | -87.90751 | 665 ft | 8 kts | 89° |
| 2026-05-06 16:38 | 41.97042 | -87.90679 | 664 ft | 8 kts | 90° |
| 2026-05-06 16:38 | 41.97042 | -87.90608 | 664 ft | 8 kts | 91° |
| 2026-05-06 16:38 | 41.97044 | -87.90536 | 664 ft | 8 kts | 90° |
| 2026-05-06 16:39 | 41.97043 | -87.90465 | 664 ft | 8 kts | 90° |
| 2026-05-06 16:39 | 41.97043 | -87.90393 | 663 ft | 8 kts | 90° |
| 2026-05-06 16:39 | 41.97043 | -87.90322 | 664 ft | 8 kts | 90° |
| 2026-05-06 16:39 | 41.97044 | -87.90251 | 665 ft | 8 kts | 90° |
| 2026-05-06 16:40 | 41.97044 | -87.90180 | 666 ft | 8 kts | 89° |
| 2026-05-06 16:40 | 41.97044 | -87.90109 | 668 ft | 8 kts | 90° |
| 2026-05-06 16:40 | 41.97044 | -87.90037 | 668 ft | 8 kts | 90° |
| 2026-05-06 16:40 | 41.97044 | -87.89966 | 669 ft | 8 kts | 90° |
| 2026-05-06 16:41 | 41.97044 | -87.89894 | 668 ft | 8 kts | 90° |
| 2026-05-06 16:41 | 41.97044 | -87.89823 | 669 ft | 8 kts | 91° |
| 2026-05-06 16:41 | 41.97044 | -87.89751 | 669 ft | 8 kts | 90° |
| 2026-05-06 16:41 | 41.97044 | -87.89680 | 669 ft | 8 kts | 90° |
| 2026-05-06 16:42 | 41.97044 | -87.89608 | 669 ft | 8 kts | 90° |
| 2026-05-06 16:42 | 41.97045 | -87.89537 | 668 ft | 8 kts | 89° |
| 2026-05-06 16:42 | 41.97045 | -87.89465 | 667 ft | 8 kts | 89° |
| 2026-05-06 16:42 | 41.97045 | -87.89394 | 665 ft | 8 kts | 90° |
| 2026-05-06 16:43 | 41.97046 | -87.89322 | 663 ft | 8 kts | 88° |
| 2026-05-06 16:43 | 41.97046 | -87.89251 | 662 ft | 8 kts | 92° |
| 2026-05-06 16:43 | 41.97045 | -87.89179 | 661 ft | 8 kts | 88° |
| 2026-05-06 16:43 | 41.97044 | -87.89108 | 660 ft | 8 kts | 88° |
| 2026-05-06 16:44 | 41.97045 | -87.89036 | 658 ft | 8 kts | 91° |
| 2026-05-06 16:44 | 41.97048 | -87.88965 | 657 ft | 8 kts | 71° |
| 2026-05-06 16:44 | 41.97090 | -87.88928 | 658 ft | 8 kts | 3° |
| 2026-05-06 16:44 | 41.97143 | -87.88927 | 658 ft | 8 kts | 2° |
| 2026-05-06 16:45 | 41.97196 | -87.88927 | 658 ft | 8 kts | 359° |
| 2026-05-06 16:45 | 41.97248 | -87.88920 | 658 ft | 8 kts | 13° |
| 2026-05-06 16:45 | 41.97301 | -87.88914 | 658 ft | 8 kts | 359° |
| 2026-05-06 16:45 | 41.97353 | -87.88914 | 658 ft | 1 kts | 1° |